Time;durP1;ratioP1;P1;durP2;ratioP2;P2;SDS_P1;SDS_P2;PMS_P1;PMS_P2;Temp;Humidity;BMP_temperature;BMP_pressure;BME280_temperature;BME280_humidity;BME280_pressure;Samples;Min_cycle;Max_cycle;Signal;HPM_P1;HPM_P2
2022/04/24 00:00:17;;;;;;;;;;;12.60;56.40;;;;;;2083202;28;20364;-88
2022/04/24 00:01:17;;;;;;;;;;;12.60;56.40;;;;;;2082519;28;19924;-91
2022/04/24 00:02:18;;;;;;;;;;;12.60;56.40;;;;;;2074517;28;19914;-91
2022/04/24 00:03:18;;;;;;;;;;;12.60;56.50;;;;;;2075698;28;19933;-90
2022/04/24 00:04:19;;;;;;;;;;;12.60;56.50;;;;;;2089571;28;19935;-89
2022/04/24 00:05:19;;;;;;;;;;;12.50;56.40;;;;;;2097448;28;19973;-90
2022/04/24 00:06:20;;;;;;;;;;;12.50;56.50;;;;;;2095439;28;19987;-90
2022/04/24 00:07:20;;;;;;;;;;;12.50;56.60;;;;;;2090487;28;20015;-90
2022/04/24 00:08:21;;;;;;;;;;;12.50;57.20;;;;;;2079423;28;20364;-89
2022/04/24 00:09:22;;;;;;;;;;;12.40;56.60;;;;;;2081176;28;19929;-91
2022/04/24 00:10:22;;;;;;;;;;;12.40;56.60;;;;;;2095992;28;19923;-89
2022/04/24 00:11:23;;;;;;;;;;;12.40;56.80;;;;;;2091031;28;19965;-91
2022/04/24 00:12:24;;;;;;;;;;;12.40;56.80;;;;;;2091329;28;19952;-91
2022/04/24 00:13:24;;;;;;;;;;;12.40;56.80;;;;;;2087075;28;20002;-90
2022/04/24 00:14:25;;;;;;;;;;;12.40;57.00;;;;;;2082443;28;19917;-90
2022/04/24 00:15:25;;;;;;;;;;;12.30;57.00;;;;;;2094712;28;19970;-90
2022/04/24 00:16:26;;;;;;;;;;;12.30;57.10;;;;;;2091846;28;19912;-90
2022/04/24 00:17:26;;;;;;;;;;;12.30;57.20;;;;;;2094260;28;19920;-90
2022/04/24 00:18:27;;;;;;;;;;;12.20;57.10;;;;;;2081889;28;19918;-90
2022/04/24 00:19:27;;;;;;;;;;;12.20;57.30;;;;;;2091200;28;19917;-90
2022/04/24 00:20:28;;;;;;;;;;;12.20;57.20;;;;;;2091367;28;19930;-90
2022/04/24 00:21:28;;;;;;;;;;;12.20;57.20;;;;;;2092133;28;19971;-91
2022/04/24 00:22:29;;;;;;;;;;;12.20;57.40;;;;;;2099574;28;20398;-91
2022/04/24 00:23:29;;;;;;;;;;;12.20;57.40;;;;;;2090879;28;19963;-89
2022/04/24 00:24:32;;;;;;;;;;;12.10;57.40;;;;;;2073535;28;20399;-90
2022/04/24 00:25:33;;;;;;;;;;;12.10;57.40;;;;;;2068274;28;19918;-89
2022/04/24 00:26:33;;;;;;;;;;;12.10;57.50;;;;;;2073104;28;19925;-90
2022/04/24 00:27:34;;;;;;;;;;;12.10;57.60;;;;;;2089217;28;19919;-90
2022/04/24 00:28:34;;;;;;;;;;;12.10;57.70;;;;;;2091760;28;20387;-90
2022/04/24 00:29:36;;;;;;;;;;;12.00;57.50;;;;;;2096967;28;19996;-90
2022/04/24 00:30:36;;;;;;;;;;;12.10;57.70;;;;;;2097371;28;19912;-90
2022/04/24 00:31:37;;;;;;;;;;;12.00;57.60;;;;;;2095667;28;19917;-91
2022/04/24 00:32:37;;;;;;;;;;;12.00;57.80;;;;;;2099005;28;19913;-91
2022/04/24 00:33:38;;;;;;;;;;;12.00;57.70;;;;;;2090474;28;20020;-90
2022/04/24 00:34:38;;;;;;;;;;;12.00;57.80;;;;;;2091134;28;19913;-90
2022/04/24 00:35:39;;;;;;;;;;;12.00;57.80;;;;;;2089303;28;20394;-89
2022/04/24 00:36:39;;;;;;;;;;;12.00;57.80;;;;;;2094042;28;19917;-91
2022/04/24 00:37:40;;;;;;;;;;;12.00;57.90;;;;;;2092574;28;19917;-90
2022/04/24 00:38:40;;;;;;;;;;;12.00;57.80;;;;;;2091132;28;20000;-91
2022/04/24 00:39:41;;;;;;;;;;;11.90;57.90;;;;;;2096565;28;19956;-92
2022/04/24 00:40:45;;;;;;;;;;;11.90;57.80;;;;;;2099312;28;19918;-92
2022/04/24 00:41:49;;;;;;;;;;;11.90;57.90;;;;;;2092151;28;19923;-90
2022/04/24 00:42:50;;;;;;;;;;;11.90;58.10;;;;;;2089693;28;19921;-89
2022/04/24 00:43:54;;;;;;;;;;;11.90;58.10;;;;;;2092871;28;19951;-91
2022/04/24 00:44:54;;;;;;;;;;;11.90;58.20;;;;;;2099904;28;19915;-90
2022/04/24 00:46:11;;;;;;;;;;;11.80;58.20;;;;;;2094757;28;20387;-90
2022/04/24 00:47:20;;;;;;;;;;;11.80;58.20;;;;;;2094079;28;19935;-89
2022/04/24 00:48:20;;;;;;;;;;;11.80;58.40;;;;;;2099292;28;19974;-90
2022/04/24 00:49:21;;;;;;;;;;;11.80;58.40;;;;;;2086103;28;19912;-91
2022/04/24 00:50:22;;;;;;;;;;;11.80;58.70;;;;;;2096298;28;20035;-91
2022/04/24 00:51:22;;;;;;;;;;;11.70;58.60;;;;;;2106412;28;19916;-91
2022/04/24 00:52:23;;;;;;;;;;;11.70;58.50;;;;;;2090365;28;19914;-89
2022/04/24 00:53:24;;;;;;;;;;;11.70;58.70;;;;;;2089477;28;19923;-90
2022/04/24 00:54:25;;;;;;;;;;;11.70;58.80;;;;;;2090212;28;19916;-90
2022/04/24 00:55:25;;;;;;;;;;;11.70;58.80;;;;;;2090522;28;20358;-89
2022/04/24 00:56:30;;;;;;;;;;;11.70;58.80;;;;;;2090877;28;19935;-90
2022/04/24 00:57:31;;;;;;;;;;;11.60;58.80;;;;;;2087850;28;19944;-90
2022/04/24 00:58:32;;;;;;;;;;;11.60;58.90;;;;;;2093151;28;19923;-90
2022/04/24 00:59:33;;;;;;;;;;;11.60;58.90;;;;;;2082386;28;19927;-90
2022/04/24 01:00:34;;;;;;;;;;;11.60;59.10;;;;;;2081703;28;19917;-90
2022/04/24 01:01:35;;;;;;;;;;;11.60;59.10;;;;;;2082106;28;19917;-90
2022/04/24 01:02:38;;;;;;;;;;;11.60;59.20;;;;;;2079159;28;20265;-91
2022/04/24 01:03:39;;;;;;;;;;;11.60;59.10;;;;;;2082787;28;19917;-89
2022/04/24 01:04:39;;;;;;;;;;;11.60;59.30;;;;;;2084634;28;19957;-90
2022/04/24 01:05:40;;;;;;;;;;;11.50;59.30;;;;;;2088380;28;20403;-91
2022/04/24 01:06:41;;;;;;;;;;;11.60;59.30;;;;;;2082904;28;19932;-90
2022/04/24 01:07:42;;;;;;;;;;;11.50;59.20;;;;;;2092610;28;19913;-90
2022/04/24 01:08:42;;;;;;;;;;;11.50;59.40;;;;;;2104093;28;19920;-84
2022/04/24 01:09:43;;;;;;;;;;;11.50;59.40;;;;;;2099865;28;19901;-86
2022/04/24 01:10:43;;;;;;;;;;;11.50;59.60;;;;;;2101250;28;19951;-86
2022/04/24 01:11:51;;;;;;;;;;;11.50;59.70;;;;;;2094406;28;19921;-90
2022/04/24 01:12:51;;;;;;;;;;;11.50;59.70;;;;;;2085401;28;20368;-90
2022/04/24 01:13:52;;;;;;;;;;;11.50;59.80;;;;;;2095247;28;19995;-82
2022/04/24 01:14:52;;;;;;;;;;;11.50;59.90;;;;;;2109412;28;19905;-91
2022/04/24 01:15:56;;;;;;;;;;;11.40;59.80;;;;;;2090774;28;19924;-90
2022/04/24 01:16:57;;;;;;;;;;;11.50;60.00;;;;;;2090214;28;19999;-91
2022/04/24 01:17:58;;;;;;;;;;;11.40;60.20;;;;;;2090672;28;19917;-89
2022/04/24 01:18:59;;;;;;;;;;;11.40;59.90;;;;;;2083262;28;20000;-90
2022/04/24 01:20:00;;;;;;;;;;;11.40;60.40;;;;;;2088213;28;20422;-90
2022/04/24 01:21:09;;;;;;;;;;;11.40;60.30;;;;;;2075513;28;19925;-90
2022/04/24 01:22:10;;;;;;;;;;;11.40;60.20;;;;;;2100951;28;19913;-83
2022/04/24 01:23:11;;;;;;;;;;;11.40;60.30;;;;;;2105079;28;19919;-87
2022/04/24 01:24:12;;;;;;;;;;;11.40;60.30;;;;;;2085308;28;19935;-90
2022/04/24 01:25:13;;;;;;;;;;;11.40;60.30;;;;;;2082423;28;19913;-91
2022/04/24 01:26:14;;;;;;;;;;;11.40;60.40;;;;;;2090629;28;20019;-90
2022/04/24 01:27:14;;;;;;;;;;;11.40;61.00;;;;;;2090140;28;20299;-90
2022/04/24 01:28:15;;;;;;;;;;;11.30;60.40;;;;;;2082447;28;19965;-90
2022/04/24 01:29:16;;;;;;;;;;;11.30;60.40;;;;;;2092258;28;19962;-91
2022/04/24 01:30:17;;;;;;;;;;;11.30;60.70;;;;;;2090050;28;19963;-90
2022/04/24 01:31:17;;;;;;;;;;;11.30;60.50;;;;;;2081834;28;19968;-90
2022/04/24 01:32:18;;;;;;;;;;;11.30;60.50;;;;;;2090726;28;19959;-91
2022/04/24 01:33:18;;;;;;;;;;;11.30;60.40;;;;;;2076957;28;20015;-90
2022/04/24 01:34:19;;;;;;;;;;;11.30;60.60;;;;;;2074195;28;19918;-90
2022/04/24 01:35:20;;;;;;;;;;;11.30;60.80;;;;;;2094519;28;19916;-90
2022/04/24 01:36:21;;;;;;;;;;;11.30;61.00;;;;;;2092044;28;19970;-90
2022/04/24 01:37:21;;;;;;;;;;;11.30;61.00;;;;;;2093180;28;19917;-88
2022/04/24 01:38:22;;;;;;;;;;;11.30;61.10;;;;;;2090826;28;20261;-90
2022/04/24 01:39:22;;;;;;;;;;;11.30;61.00;;;;;;2084859;28;19925;-91
2022/04/24 01:40:23;;;;;;;;;;;11.20;60.80;;;;;;2084625;28;19952;-90
2022/04/24 01:41:23;;;;;;;;;;;11.30;61.20;;;;;;2094662;28;19952;-89
2022/04/24 01:42:24;;;;;;;;;;;11.30;61.20;;;;;;2099322;28;19916;-91
2022/04/24 01:43:25;;;;;;;;;;;11.30;61.10;;;;;;2083837;28;20086;-90
2022/04/24 01:44:25;;;;;;;;;;;11.30;61.10;;;;;;2082175;28;19917;-91
2022/04/24 01:45:26;;;;;;;;;;;11.30;61.30;;;;;;2082313;28;20389;-90
2022/04/24 01:46:26;;;;;;;;;;;11.30;61.60;;;;;;2079766;28;19971;-90
2022/04/24 01:47:27;;;;;;;;;;;11.30;61.30;;;;;;2085031;28;20322;-90
2022/04/24 01:48:28;;;;;;;;;;;11.30;61.20;;;;;;2081574;28;19964;-91
2022/04/24 01:49:28;;;;;;;;;;;11.30;61.40;;;;;;2081578;28;19972;-91
2022/04/24 01:50:30;;;;;;;;;;;11.20;61.10;;;;;;2089797;28;20140;-91
2022/04/24 01:51:31;;;;;;;;;;;11.20;61.30;;;;;;2090477;28;20345;-90
2022/04/24 01:52:31;;;;;;;;;;;11.20;61.50;;;;;;2085504;28;19913;-91
2022/04/24 01:53:32;;;;;;;;;;;11.20;61.80;;;;;;2081552;28;19965;-90
2022/04/24 01:54:33;;;;;;;;;;;11.20;61.80;;;;;;2084684;28;19931;-90
2022/04/24 01:55:33;;;;;;;;;;;11.10;61.90;;;;;;2085592;28;19916;-90
2022/04/24 01:56:34;;;;;;;;;;;11.10;61.80;;;;;;2090301;28;20374;-89
2022/04/24 01:57:34;;;;;;;;;;;11.10;61.80;;;;;;2086433;28;19913;-90
2022/04/24 01:58:35;;;;;;;;;;;11.10;62.10;;;;;;2086143;28;20394;-90
2022/04/24 01:59:36;;;;;;;;;;;11.10;61.90;;;;;;2078092;28;19925;-91
2022/04/24 02:00:36;;;;;;;;;;;11.10;62.00;;;;;;2074016;28;19920;-90
2022/04/24 02:01:37;;;;;;;;;;;11.10;62.30;;;;;;2070993;28;19971;-91
2022/04/24 02:02:37;;;;;;;;;;;11.00;62.10;;;;;;2074408;28;20296;-91
2022/04/24 02:03:38;;;;;;;;;;;11.00;62.30;;;;;;2082189;28;19913;-90
2022/04/24 02:04:39;;;;;;;;;;;11.00;62.60;;;;;;2093221;28;19991;-91
2022/04/24 02:05:39;;;;;;;;;;;11.00;63.10;;;;;;2079960;28;19918;-90
2022/04/24 02:06:40;;;;;;;;;;;11.00;62.80;;;;;;2073901;28;20289;-91
2022/04/24 02:07:41;;;;;;;;;;;11.00;62.70;;;;;;2073556;28;19925;-90
2022/04/24 02:08:41;;;;;;;;;;;11.00;62.90;;;;;;2074004;28;19921;-90
2022/04/24 02:09:42;;;;;;;;;;;10.90;62.70;;;;;;2076220;28;19951;-91
2022/04/24 02:10:42;;;;;;;;;;;10.90;62.50;;;;;;2073811;28;19922;-91
2022/04/24 02:11:43;;;;;;;;;;;10.90;62.60;;;;;;2085247;28;19917;-92
2022/04/24 02:12:44;;;;;;;;;;;10.90;63.20;;;;;;2090253;28;19964;-90
2022/04/24 02:13:45;;;;;;;;;;;10.90;62.80;;;;;;2081472;28;19928;-91
2022/04/24 02:14:45;;;;;;;;;;;10.90;63.10;;;;;;2080715;28;19921;-90
2022/04/24 02:15:46;;;;;;;;;;;10.90;62.80;;;;;;2076032;28;20480;-90
2022/04/24 02:16:46;;;;;;;;;;;10.90;62.90;;;;;;2083111;28;19920;-91
2022/04/24 02:17:47;;;;;;;;;;;10.90;63.20;;;;;;2081024;28;19924;-91
2022/04/24 02:18:47;;;;;;;;;;;10.80;63.60;;;;;;2073687;28;20021;-90
2022/04/24 02:19:48;;;;;;;;;;;10.80;63.40;;;;;;2080032;28;19921;-90
2022/04/24 02:20:48;;;;;;;;;;;10.80;63.30;;;;;;2074821;28;19909;-90
2022/04/24 02:21:49;;;;;;;;;;;10.80;63.20;;;;;;2081014;28;19920;-91
2022/04/24 02:22:50;;;;;;;;;;;10.80;63.80;;;;;;2083397;28;19917;-90
2022/04/24 02:23:51;;;;;;;;;;;10.80;63.80;;;;;;2090244;28;19908;-90
2022/04/24 02:24:52;;;;;;;;;;;10.70;63.90;;;;;;2080079;28;20407;-90
2022/04/24 02:25:52;;;;;;;;;;;10.70;64.00;;;;;;2082055;28;19913;-91
2022/04/24 02:26:53;;;;;;;;;;;10.70;64.00;;;;;;2088686;28;19920;-90
2022/04/24 02:27:54;;;;;;;;;;;10.70;64.80;;;;;;2081612;28;19952;-91
2022/04/24 02:28:55;;;;;;;;;;;10.70;64.00;;;;;;2085103;28;20445;-90
2022/04/24 02:29:55;;;;;;;;;;;10.70;64.20;;;;;;2098419;28;19947;-91
2022/04/24 02:30:56;;;;;;;;;;;10.70;64.40;;;;;;2087056;28;19943;-90
2022/04/24 02:31:57;;;;;;;;;;;10.70;64.40;;;;;;2073109;28;20487;-90
2022/04/24 02:32:58;;;;;;;;;;;10.70;64.40;;;;;;2088894;28;19917;-90
2022/04/24 02:33:58;;;;;;;;;;;10.60;64.60;;;;;;2089411;28;19995;-91
2022/04/24 02:34:59;;;;;;;;;;;10.60;64.70;;;;;;2079572;28;20003;-90
2022/04/24 02:35:59;;;;;;;;;;;10.60;64.50;;;;;;2081429;28;19956;-90
2022/04/24 02:37:00;;;;;;;;;;;10.60;64.60;;;;;;2085994;28;20479;-90
2022/04/24 02:38:01;;;;;;;;;;;10.60;64.40;;;;;;2089809;28;20287;-90
2022/04/24 02:39:01;;;;;;;;;;;10.60;64.60;;;;;;2088255;28;20015;-91
2022/04/24 02:40:02;;;;;;;;;;;10.60;65.00;;;;;;2082043;28;19925;-91
2022/04/24 02:41:02;;;;;;;;;;;10.60;64.70;;;;;;2083641;28;19940;-91
2022/04/24 02:42:03;;;;;;;;;;;10.60;64.80;;;;;;2089276;28;19917;-90
2022/04/24 02:43:04;;;;;;;;;;;10.60;65.10;;;;;;2089181;28;20337;-90
2022/04/24 02:44:04;;;;;;;;;;;10.50;65.00;;;;;;2080654;28;19924;-91
2022/04/24 02:45:06;;;;;;;;;;;10.50;65.00;;;;;;2073486;28;19913;-89
2022/04/24 02:46:06;;;;;;;;;;;10.50;65.30;;;;;;2080270;28;20031;-90
2022/04/24 02:47:07;;;;;;;;;;;10.50;65.60;;;;;;2081592;28;19947;-90
2022/04/24 02:48:07;;;;;;;;;;;10.50;65.10;;;;;;2081899;28;19913;-91
2022/04/24 02:49:08;;;;;;;;;;;10.50;65.60;;;;;;2088008;28;19986;-89
2022/04/24 02:50:08;;;;;;;;;;;10.50;65.60;;;;;;2090016;28;20364;-90
2022/04/24 02:51:09;;;;;;;;;;;10.50;65.40;;;;;;2081598;28;19917;-91
2022/04/24 02:52:09;;;;;;;;;;;10.50;65.30;;;;;;2081109;28;20307;-91
2022/04/24 02:53:10;;;;;;;;;;;10.50;65.60;;;;;;2091020;28;19925;-90
2022/04/24 02:54:11;;;;;;;;;;;10.50;65.40;;;;;;2080276;28;20421;-90
2022/04/24 02:55:13;;;;;;;;;;;10.40;65.20;;;;;;2080784;28;19909;-83
2022/04/24 02:56:13;;;;;;;;;;;10.50;65.60;;;;;;2098929;28;19981;-85
2022/04/24 02:57:14;;;;;;;;;;;10.50;65.60;;;;;;2109072;28;19896;-83
2022/04/24 02:58:14;;;;;;;;;;;10.40;65.70;;;;;;2099763;28;20359;-91
2022/04/24 02:59:16;;;;;;;;;;;10.40;65.40;;;;;;2096846;28;19970;-87
2022/04/24 03:00:27;;;;;;;;;;;10.40;65.50;;;;;;2100428;28;19916;-79
2022/04/24 03:01:28;;;;;;;;;;;10.40;65.80;;;;;;2096261;28;19915;-89
2022/04/24 03:02:28;;;;;;;;;;;10.40;65.60;;;;;;2089281;28;20299;-91
2022/04/24 03:03:29;;;;;;;;;;;10.40;66.00;;;;;;2082116;28;20303;-90
2022/04/24 03:04:29;;;;;;;;;;;10.40;65.90;;;;;;2083014;28;19913;-91
2022/04/24 03:05:30;;;;;;;;;;;10.40;66.10;;;;;;2088633;28;20454;-90
2022/04/24 03:06:30;;;;;;;;;;;10.30;66.00;;;;;;2084990;28;19917;-90
2022/04/24 03:07:31;;;;;;;;;;;10.40;66.20;;;;;;2086939;28;19921;-89
2022/04/24 03:08:32;;;;;;;;;;;10.30;65.90;;;;;;2100547;28;19908;-82
2022/04/24 03:09:32;;;;;;;;;;;10.30;65.70;;;;;;2108045;28;19912;-85
2022/04/24 03:10:33;;;;;;;;;;;10.30;66.00;;;;;;2101578;28;19921;-90
2022/04/24 03:11:33;;;;;;;;;;;10.30;66.20;;;;;;2089215;28;20334;-90
2022/04/24 03:12:37;;;;;;;;;;;10.30;66.10;;;;;;2087421;28;19913;-90
2022/04/24 03:13:38;;;;;;;;;;;10.30;66.20;;;;;;2098381;28;19912;-91
2022/04/24 03:14:38;;;;;;;;;;;10.30;66.00;;;;;;2089564;28;19959;-90
2022/04/24 03:15:39;;;;;;;;;;;10.30;65.90;;;;;;2074862;28;19924;-91
2022/04/24 03:16:39;;;;;;;;;;;10.30;66.20;;;;;;2073321;28;20099;-90
2022/04/24 03:17:40;;;;;;;;;;;10.30;65.90;;;;;;2081119;28;20003;-89
2022/04/24 03:18:40;;;;;;;;;;;10.30;66.00;;;;;;2078046;28;20339;-91
2022/04/24 03:19:41;;;;;;;;;;;10.30;66.20;;;;;;2085825;28;19952;-91
2022/04/24 03:20:41;;;;;;;;;;;10.20;66.40;;;;;;2095632;28;19966;-89
2022/04/24 03:21:42;;;;;;;;;;;10.20;66.20;;;;;;2097663;28;19916;-91
2022/04/24 03:22:42;;;;;;;;;;;10.20;66.10;;;;;;2091516;28;20437;-91
2022/04/24 03:23:43;;;;;;;;;;;10.20;66.50;;;;;;2098280;28;20384;-91
2022/04/24 03:24:45;;;;;;;;;;;10.20;66.20;;;;;;2090779;28;19917;-91
2022/04/24 03:25:46;;;;;;;;;;;10.20;66.20;;;;;;2091033;28;19917;-89
2022/04/24 03:26:46;;;;;;;;;;;10.20;66.60;;;;;;2095231;28;19993;-90
2022/04/24 03:27:48;;;;;;;;;;;10.20;66.40;;;;;;2089592;28;19967;-90
2022/04/24 03:28:48;;;;;;;;;;;10.20;66.60;;;;;;2080025;28;20319;-89
2022/04/24 03:29:49;;;;;;;;;;;10.20;66.50;;;;;;2089916;28;19916;-91
2022/04/24 03:30:50;;;;;;;;;;;10.10;66.40;;;;;;2096091;28;19924;-90
2022/04/24 03:31:50;;;;;;;;;;;10.10;66.30;;;;;;2092937;28;20319;-91
2022/04/24 03:32:51;;;;;;;;;;;10.10;66.60;;;;;;2090500;28;19917;-90
2022/04/24 03:33:52;;;;;;;;;;;10.10;66.80;;;;;;2088486;28;19916;-91
2022/04/24 03:34:52;;;;;;;;;;;10.10;66.70;;;;;;2081727;28;20372;-90
2022/04/24 03:35:53;;;;;;;;;;;10.10;66.60;;;;;;2077456;28;19926;-91
2022/04/24 03:36:53;;;;;;;;;;;10.10;66.80;;;;;;2079655;28;19968;-90
2022/04/24 03:37:55;;;;;;;;;;;10.10;67.10;;;;;;2073555;28;22070;-91
2022/04/24 03:38:55;;;;;;;;;;;10.10;66.70;;;;;;2071308;28;19948;-91
2022/04/24 03:39:56;;;;;;;;;;;10.10;66.80;;;;;;2090187;28;19936;-91
2022/04/24 03:40:56;;;;;;;;;;;10.00;66.70;;;;;;2081451;28;19913;-90
2022/04/24 03:41:57;;;;;;;;;;;10.00;66.80;;;;;;2081668;28;19975;-90
2022/04/24 03:42:58;;;;;;;;;;;10.00;66.80;;;;;;2090638;28;20310;-89
2022/04/24 03:43:58;;;;;;;;;;;10.00;67.30;;;;;;2099086;28;20008;-91
2022/04/24 03:44:59;;;;;;;;;;;10.00;67.00;;;;;;2090676;28;19944;-91
2022/04/24 03:45:59;;;;;;;;;;;10.00;66.90;;;;;;2094061;28;20442;-90
2022/04/24 03:47:00;;;;;;;;;;;10.00;66.90;;;;;;2095243;28;19931;-91
2022/04/24 03:48:01;;;;;;;;;;;10.00;67.10;;;;;;2089356;28;20015;-91
2022/04/24 03:49:01;;;;;;;;;;;10.00;67.00;;;;;;2073720;28;20000;-90
2022/04/24 03:50:02;;;;;;;;;;;10.00;67.00;;;;;;2073234;28;19918;-91
2022/04/24 03:51:04;;;;;;;;;;;10.00;67.00;;;;;;2091567;28;19916;-91
2022/04/24 03:52:04;;;;;;;;;;;10.00;67.00;;;;;;2098159;28;19919;-90
2022/04/24 03:53:05;;;;;;;;;;;10.00;66.90;;;;;;2082184;28;20553;-91
2022/04/24 03:54:05;;;;;;;;;;;9.90;66.80;;;;;;2091560;28;20425;-91
2022/04/24 03:55:06;;;;;;;;;;;10.00;67.00;;;;;;2092120;28;20007;-90
2022/04/24 03:56:07;;;;;;;;;;;9.90;67.10;;;;;;2087161;28;19956;-90
2022/04/24 03:57:07;;;;;;;;;;;9.90;66.80;;;;;;2090296;28;19924;-91
2022/04/24 03:58:08;;;;;;;;;;;9.90;66.90;;;;;;2091303;28;20376;-91
2022/04/24 03:59:08;;;;;;;;;;;9.90;66.80;;;;;;2097683;28;20389;-89
2022/04/24 04:00:09;;;;;;;;;;;9.90;67.00;;;;;;2091170;28;20019;-90
2022/04/24 04:01:12;;;;;;;;;;;9.90;67.40;;;;;;2082204;28;19917;-90
2022/04/24 04:02:13;;;;;;;;;;;9.90;67.20;;;;;;2083718;28;19913;-90
2022/04/24 04:03:13;;;;;;;;;;;9.90;67.40;;;;;;2089570;28;20282;-90
2022/04/24 04:04:14;;;;;;;;;;;9.90;67.30;;;;;;2091316;28;20064;-91
2022/04/24 04:05:16;;;;;;;;;;;9.90;67.20;;;;;;2082462;28;19947;-90
2022/04/24 04:06:17;;;;;;;;;;;9.80;67.00;;;;;;2091413;28;20007;-90
2022/04/24 04:07:18;;;;;;;;;;;9.80;67.20;;;;;;2086818;28;19928;-91
2022/04/24 04:08:18;;;;;;;;;;;9.80;67.10;;;;;;2088215;28;20361;-90
2022/04/24 04:09:19;;;;;;;;;;;9.80;67.20;;;;;;2083163;28;19913;-90
2022/04/24 04:10:21;;;;;;;;;;;9.80;67.20;;;;;;2078785;28;19921;-90
2022/04/24 04:11:22;;;;;;;;;;;9.80;67.40;;;;;;2084646;28;20391;-89
2022/04/24 04:12:25;;;;;;;;;;;9.70;67.10;;;;;;2091366;28;19917;-90
2022/04/24 04:13:26;;;;;;;;;;;9.70;67.10;;;;;;2094339;28;19921;-90
2022/04/24 04:14:27;;;;;;;;;;;9.70;67.20;;;;;;2083087;28;19913;-91
2022/04/24 04:15:29;;;;;;;;;;;9.70;67.60;;;;;;2082814;28;19913;-91
2022/04/24 04:16:29;;;;;;;;;;;9.70;67.60;;;;;;2092231;28;19916;-90
2022/04/24 04:17:30;;;;;;;;;;;9.70;67.90;;;;;;2084162;28;19963;-89
2022/04/24 04:18:30;;;;;;;;;;;9.70;67.60;;;;;;2090342;28;19928;-90
2022/04/24 04:19:31;;;;;;;;;;;9.70;67.60;;;;;;2097206;28;19964;-90
2022/04/24 04:20:32;;;;;;;;;;;9.60;67.40;;;;;;2083174;28;19914;-90
2022/04/24 04:21:32;;;;;;;;;;;9.60;67.80;;;;;;2082642;28;19924;-91
2022/04/24 04:22:42;;;;;;;;;;;9.60;67.80;;;;;;2081699;28;19921;-91
2022/04/24 04:23:43;;;;;;;;;;;9.60;67.70;;;;;;2085462;28;19921;-91
2022/04/24 04:24:44;;;;;;;;;;;9.60;67.80;;;;;;2082964;28;19913;-91
2022/04/24 04:25:44;;;;;;;;;;;9.60;67.90;;;;;;2082469;28;20380;-91
2022/04/24 04:26:45;;;;;;;;;;;9.60;67.80;;;;;;2088197;28;20027;-92
2022/04/24 04:27:45;;;;;;;;;;;9.50;67.70;;;;;;2087379;28;19921;-91
2022/04/24 04:28:46;;;;;;;;;;;9.50;68.30;;;;;;2091297;28;20023;-90
2022/04/24 04:29:47;;;;;;;;;;;9.50;68.00;;;;;;2092441;28;19948;-91
2022/04/24 04:30:47;;;;;;;;;;;9.50;68.00;;;;;;2085023;28;20009;-91
2022/04/24 04:31:48;;;;;;;;;;;9.50;67.80;;;;;;2082477;28;19913;-91
2022/04/24 04:32:50;;;;;;;;;;;9.50;68.00;;;;;;2076130;28;20367;-90
2022/04/24 04:33:50;;;;;;;;;;;9.50;68.40;;;;;;2074692;28;19973;-90
2022/04/24 04:34:51;;;;;;;;;;;9.50;68.20;;;;;;2075283;28;19918;-90
2022/04/24 04:35:51;;;;;;;;;;;9.50;68.40;;;;;;2096268;28;20003;-91
2022/04/24 04:36:53;;;;;;;;;;;9.50;68.20;;;;;;2092144;28;20426;-91
2022/04/24 04:37:54;;;;;;;;;;;9.50;68.20;;;;;;2102440;28;19920;-90
2022/04/24 04:38:54;;;;;;;;;;;9.40;68.40;;;;;;2088151;28;20375;-90
2022/04/24 04:39:55;;;;;;;;;;;9.40;68.30;;;;;;2080624;28;19987;-91
2022/04/24 04:40:55;;;;;;;;;;;9.40;68.30;;;;;;2085965;28;19964;-91
2022/04/24 04:41:56;;;;;;;;;;;9.50;68.40;;;;;;2081322;28;20001;-84
2022/04/24 04:42:56;;;;;;;;;;;9.40;68.30;;;;;;2079577;28;19994;-83
2022/04/24 04:43:57;;;;;;;;;;;9.40;68.40;;;;;;2094342;28;19928;-87
2022/04/24 04:45:00;;;;;;;;;;;9.40;68.20;;;;;;2104246;28;19935;-90
2022/04/24 04:46:01;;;;;;;;;;;9.40;69.20;;;;;;2090311;28;19913;-90
2022/04/24 04:47:01;;;;;;;;;;;9.40;68.60;;;;;;2100740;28;19930;-91
2022/04/24 04:48:02;;;;;;;;;;;9.40;68.40;;;;;;2109621;28;19905;-90
2022/04/24 04:49:03;;;;;;;;;;;9.40;68.50;;;;;;2101018;28;19964;-90
2022/04/24 04:50:04;;;;;;;;;;;9.40;68.50;;;;;;2093160;28;19959;-91
2022/04/24 04:51:05;;;;;;;;;;;9.40;68.70;;;;;;2092548;28;19959;-90
2022/04/24 04:52:05;;;;;;;;;;;9.40;68.60;;;;;;2082882;28;20006;-90
2022/04/24 04:53:06;;;;;;;;;;;9.30;68.70;;;;;;2080086;28;19924;-91
2022/04/24 04:54:06;;;;;;;;;;;9.30;68.70;;;;;;2071837;28;19929;-91
2022/04/24 04:55:07;;;;;;;;;;;9.30;68.80;;;;;;2087817;28;19964;-81
2022/04/24 04:56:07;;;;;;;;;;;9.30;68.50;;;;;;2099519;28;19931;-86
2022/04/24 04:57:08;;;;;;;;;;;9.30;68.70;;;;;;2107114;28;19905;-89
2022/04/24 04:58:08;;;;;;;;;;;9.30;68.90;;;;;;2091624;28;19928;-90
2022/04/24 04:59:09;;;;;;;;;;;9.30;68.80;;;;;;2082378;28;20367;-90
2022/04/24 05:00:11;;;;;;;;;;;9.30;68.50;;;;;;2087894;28;20387;-90
2022/04/24 05:01:11;;;;;;;;;;;9.30;68.70;;;;;;2094312;28;19916;-91
2022/04/24 05:02:12;;;;;;;;;;;9.30;68.70;;;;;;2099102;28;19999;-91
2022/04/24 05:03:13;;;;;;;;;;;9.30;68.70;;;;;;2084863;28;19921;-91
2022/04/24 05:04:13;;;;;;;;;;;9.30;68.90;;;;;;2091196;28;19916;-90
2022/04/24 05:05:14;;;;;;;;;;;9.30;68.80;;;;;;2099098;28;19919;-90
2022/04/24 05:06:14;;;;;;;;;;;9.30;68.80;;;;;;2092497;28;19935;-91
2022/04/24 05:07:15;;;;;;;;;;;9.30;69.10;;;;;;2096018;28;20027;-90
2022/04/24 05:08:15;;;;;;;;;;;9.30;69.10;;;;;;2095849;28;19943;-90
2022/04/24 05:09:16;;;;;;;;;;;9.30;69.10;;;;;;2082319;28;20007;-90
2022/04/24 05:10:16;;;;;;;;;;;9.30;69.10;;;;;;2088701;28;19925;-91
2022/04/24 05:11:17;;;;;;;;;;;9.30;68.90;;;;;;2090185;28;19913;-92
2022/04/24 05:12:17;;;;;;;;;;;9.30;68.90;;;;;;2087896;28;20011;-91
2022/04/24 05:13:18;;;;;;;;;;;9.30;69.00;;;;;;2074382;28;19917;-90
2022/04/24 05:14:19;;;;;;;;;;;9.30;68.90;;;;;;2067824;28;20427;-91
2022/04/24 05:15:21;;;;;;;;;;;9.30;68.70;;;;;;2071830;28;20397;-91
2022/04/24 05:16:21;;;;;;;;;;;9.30;68.90;;;;;;2082088;28;19917;-91
2022/04/24 05:17:22;;;;;;;;;;;9.40;68.70;;;;;;2080288;28;19922;-91
2022/04/24 05:18:22;;;;;;;;;;;9.40;68.60;;;;;;2090799;28;19920;-90
2022/04/24 05:19:25;;;;;;;;;;;9.40;68.70;;;;;;2094251;28;19967;-90
2022/04/24 05:20:26;;;;;;;;;;;9.40;68.60;;;;;;2096729;28;20319;-91
2022/04/24 05:21:26;;;;;;;;;;;9.40;68.60;;;;;;2093575;28;20349;-90
2022/04/24 05:22:27;;;;;;;;;;;9.40;68.30;;;;;;2091745;28;20330;-91
2022/04/24 05:23:27;;;;;;;;;;;9.40;68.40;;;;;;2091329;28;20335;-91
2022/04/24 05:24:28;;;;;;;;;;;9.50;68.40;;;;;;2091035;28;19913;-90
2022/04/24 05:25:28;;;;;;;;;;;9.50;68.40;;;;;;2095003;28;19912;-91
2022/04/24 05:26:29;;;;;;;;;;;9.50;68.30;;;;;;2099089;28;19924;-90
2022/04/24 05:27:30;;;;;;;;;;;9.50;68.30;;;;;;2092273;28;20295;-90
2022/04/24 05:28:31;;;;;;;;;;;9.50;68.20;;;;;;2089514;28;19916;-90
2022/04/24 05:29:31;;;;;;;;;;;9.50;68.40;;;;;;2099336;28;19913;-91
2022/04/24 05:30:33;;;;;;;;;;;9.60;68.50;;;;;;2098897;28;19959;-91
2022/04/24 05:31:33;;;;;;;;;;;9.60;68.50;;;;;;2094300;28;20589;-92
2022/04/24 05:32:37;;;;;;;;;;;9.60;68.30;;;;;;2097160;28;19998;-91
2022/04/24 05:33:38;;;;;;;;;;;9.60;68.30;;;;;;2095085;28;19924;-91
2022/04/24 05:34:39;;;;;;;;;;;9.60;68.20;;;;;;2098019;28;19916;-90
2022/04/24 05:35:39;;;;;;;;;;;9.60;68.20;;;;;;2096000;28;20387;-90
2022/04/24 05:36:40;;;;;;;;;;;9.70;68.20;;;;;;2082089;28;19917;-89
2022/04/24 05:37:41;;;;;;;;;;;9.70;68.40;;;;;;2076026;28;19921;-90
2022/04/24 05:38:41;;;;;;;;;;;9.70;68.10;;;;;;2083890;28;19975;-90
2022/04/24 05:39:42;;;;;;;;;;;9.70;68.00;;;;;;2082426;28;19909;-90
2022/04/24 05:40:42;;;;;;;;;;;9.70;68.10;;;;;;2090581;28;19923;-90
2022/04/24 05:41:43;;;;;;;;;;;9.70;68.00;;;;;;2085382;28;19921;-91
2022/04/24 05:42:44;;;;;;;;;;;9.80;68.10;;;;;;2077897;28;20326;-90
2022/04/24 05:43:45;;;;;;;;;;;9.80;67.90;;;;;;2088194;28;19980;-90
2022/04/24 05:44:45;;;;;;;;;;;9.80;67.80;;;;;;2101393;28;19920;-90
2022/04/24 05:45:46;;;;;;;;;;;9.80;67.80;;;;;;2088758;28;19932;-91
2022/04/24 05:46:47;;;;;;;;;;;9.80;67.80;;;;;;2081924;28;19965;-90
2022/04/24 05:47:51;;;;;;;;;;;9.90;67.80;;;;;;2076828;28;20431;-91
2022/04/24 05:48:51;;;;;;;;;;;9.90;67.60;;;;;;2084902;28;19911;-90
2022/04/24 05:49:52;;;;;;;;;;;10.00;67.60;;;;;;2082044;28;19914;-89
2022/04/24 05:50:52;;;;;;;;;;;10.00;67.30;;;;;;2092328;28;19917;-92
2022/04/24 05:52:00;;;;;;;;;;;10.00;67.50;;;;;;2105029;28;19976;-90
2022/04/24 05:53:02;;;;;;;;;;;10.00;67.30;;;;;;2098002;28;19907;-90
2022/04/24 05:54:02;;;;;;;;;;;10.00;67.10;;;;;;2097416;28;19935;-90
2022/04/24 05:55:10;;;;;;;;;;;10.10;67.10;;;;;;2089274;28;19917;-91
2022/04/24 05:56:13;;;;;;;;;;;10.10;67.10;;;;;;2099520;28;19913;-91